createdAt,value
2023-09-06T00:00:47.605Z,101568.00
2023-09-06T00:03:00.392Z,101570.84
2023-09-06T00:04:56.370Z,101563.44
2023-09-06T00:06:53.630Z,101571.47
2023-09-06T00:08:46.861Z,101566.94
2023-09-06T00:10:42.462Z,101566.13
2023-09-06T00:12:37.881Z,101564.47
2023-09-06T00:14:38.227Z,101568.13
2023-09-06T00:16:33.716Z,101564.41
2023-09-06T00:18:29.098Z,101559.84
2023-09-06T00:20:22.218Z,101558.59
2023-09-06T00:22:21.447Z,101560.41
2023-09-06T00:24:15.936Z,101563.69
2023-09-06T00:26:11.365Z,101549.22
2023-09-06T00:28:05.670Z,101558.13
2023-09-06T00:30:03.341Z,101559.59
2023-09-06T00:31:58.851Z,101555.63
2023-09-06T00:33:54.009Z,101552.75
2023-09-06T00:35:49.785Z,101558.28
2023-09-06T00:37:45.151Z,101558.34
2023-09-06T00:39:40.534Z,101558.97
2023-09-06T00:41:36.226Z,101560.59
2023-09-06T00:43:30.202Z,101555.00
2023-09-06T00:45:28.192Z,101560.19
2023-09-06T00:47:23.975Z,101562.88
2023-09-06T00:49:19.337Z,101556.25
2023-09-06T00:51:15.065Z,101557.31
2023-09-06T00:53:08.679Z,101555.25
2023-09-06T00:55:04.689Z,101561.22
2023-09-06T00:57:00.588Z,101564.63
2023-09-06T00:58:56.274Z,101560.53
2023-09-06T01:00:52.049Z,101554.56
2023-09-06T01:02:48.661Z,101552.28
2023-09-06T01:04:44.949Z,101550.44
2023-09-06T01:06:44.163Z,101551.47
2023-09-06T01:08:43.382Z,101558.28
2023-09-06T01:10:36.205Z,101557.84
2023-09-06T01:12:32.264Z,101559.44
2023-09-06T01:14:27.682Z,101561.72
2023-09-06T01:16:27.823Z,101563.38
2023-09-06T01:18:26.452Z,101559.25
2023-09-06T01:20:32.767Z,101567.50
2023-09-06T01:22:35.528Z,101565.84
2023-09-06T01:24:33.616Z,101560.69
2023-09-06T01:26:30.073Z,101556.72
2023-09-06T01:28:28.640Z,101567.84
2023-09-06T01:30:24.345Z,101563.03
2023-09-06T01:32:20.350Z,101572.19
2023-09-06T01:34:12.888Z,101565.78
2023-09-06T01:36:08.623Z,101559.59
2023-09-06T01:38:01.452Z,101564.94
2023-09-06T01:39:59.183Z,101564.88
2023-09-06T01:41:52.067Z,101568.53
2023-09-06T01:43:47.448Z,101566.28
2023-09-06T01:45:52.277Z,101561.09
2023-09-06T01:47:49.543Z,101567.94
2023-09-06T01:49:46.383Z,101567.09
2023-09-06T01:51:41.780Z,101555.13
2023-09-06T01:53:36.854Z,101557.13
2023-09-06T01:55:31.986Z,101552.94
2023-09-06T01:57:27.397Z,101553.47
2023-09-06T01:59:22.449Z,101556.94
2023-09-06T02:01:15.447Z,101556.69
2023-09-06T02:03:11.820Z,101562.84
2023-09-06T02:05:04.700Z,101557.25
2023-09-06T02:07:00.163Z,101553.88
2023-09-06T02:08:55.255Z,101551.38
2023-09-06T02:10:52.884Z,101545.13
2023-09-06T02:12:46.136Z,101553.69
2023-09-06T02:14:41.294Z,101547.06
2023-09-06T02:16:36.370Z,101544.34
2023-09-06T02:18:32.086Z,101545.75
2023-09-06T02:20:25.910Z,101535.72
2023-09-06T02:22:21.538Z,101537.75
2023-09-06T02:24:17.121Z,101538.13
2023-09-06T02:26:14.967Z,101530.22
2023-09-06T02:28:10.390Z,101537.50
2023-09-06T02:30:06.231Z,101543.84
2023-09-06T02:32:01.536Z,101546.47
2023-09-06T02:33:54.597Z,101555.22
2023-09-06T02:35:50.974Z,101551.81
2023-09-06T02:37:43.535Z,101559.41
2023-09-06T02:39:39.930Z,101559.03
2023-09-06T02:41:37.585Z,101561.31
2023-09-06T02:43:33.211Z,101557.47
2023-09-06T02:45:38.144Z,101557.81
2023-09-06T02:47:52.338Z,101550.75
2023-09-06T02:49:49.260Z,101552.28
2023-09-06T02:51:48.290Z,101552.56
2023-09-06T02:53:45.558Z,101552.94
2023-09-06T02:55:38.547Z,101555.31
2023-09-06T02:57:36.490Z,101558.66
2023-09-06T02:59:29.538Z,101566.84
2023-09-06T03:01:24.752Z,101563.78
2023-09-06T03:03:17.623Z,101566.94
2023-09-06T03:05:18.865Z,101566.56
2023-09-06T03:07:16.385Z,101568.13
2023-09-06T03:09:11.921Z,101570.34
2023-09-06T03:11:08.731Z,101570.81
2023-09-06T03:13:06.911Z,101582.53
2023-09-06T03:15:02.355Z,101578.75
2023-09-06T03:16:54.899Z,101576.72
2023-09-06T03:18:50.482Z,101582.56
2023-09-06T03:20:46.832Z,101578.66
2023-09-06T03:22:39.537Z,101575.81
2023-09-06T03:24:34.669Z,101581.16
2023-09-06T03:26:30.569Z,101584.00
2023-09-06T03:28:30.106Z,101584.00
2023-09-06T03:30:25.583Z,101584.56
2023-09-06T03:32:22.189Z,101586.59
2023-09-06T03:34:17.589Z,101594.81
2023-09-06T03:36:14.058Z,101587.59
2023-09-06T03:38:10.694Z,101590.47
2023-09-06T03:40:13.942Z,101593.31
2023-09-06T03:42:11.058Z,101583.00
2023-09-06T03:44:06.320Z,101585.69
2023-09-06T03:46:06.394Z,101589.38
2023-09-06T03:47:59.219Z,101585.03
2023-09-06T03:49:54.338Z,101599.56
2023-09-06T03:51:50.028Z,101596.25
2023-09-06T03:53:47.814Z,101598.47
2023-09-06T03:55:43.199Z,101598.00
2023-09-06T03:57:38.597Z,101604.19
2023-09-06T03:59:37.207Z,101603.34
2023-09-06T04:01:34.391Z,101608.53
2023-09-06T04:03:28.163Z,101598.84
2023-09-06T04:05:27.145Z,101601.69
2023-09-06T04:07:26.815Z,101601.88
2023-09-06T04:09:28.948Z,101599.56
2023-09-06T04:11:21.854Z,101603.44
2023-09-06T04:13:18.126Z,101608.59
2023-09-06T04:15:14.328Z,101607.13
2023-09-06T04:17:09.813Z,101611.34
2023-09-06T04:19:06.579Z,101608.41
2023-09-06T04:21:01.528Z,101608.94
2023-09-06T04:22:57.370Z,101613.47
2023-09-06T04:24:52.411Z,101618.63
2023-09-06T04:26:50.223Z,101613.09
2023-09-06T04:28:42.814Z,101616.78
2023-09-06T04:30:42.106Z,101616.69
2023-09-06T04:32:35.790Z,101615.94
2023-09-06T04:34:30.828Z,101619.97
2023-09-06T04:36:23.913Z,101616.28
2023-09-06T04:38:20.840Z,101622.66
2023-09-06T04:40:20.591Z,101624.84
2023-09-06T04:42:13.432Z,101624.03
2023-09-06T04:44:11.458Z,101627.69
2023-09-06T04:46:09.878Z,101629.34
2023-09-06T04:48:05.081Z,101623.16
2023-09-06T04:49:57.695Z,101630.53
2023-09-06T04:51:54.095Z,101628.06
2023-09-06T04:53:50.296Z,101628.22
2023-09-06T04:55:45.966Z,101626.78
2023-09-06T04:57:38.441Z,101639.81
2023-09-06T04:59:34.739Z,101635.84
2023-09-06T05:01:32.852Z,101642.03
2023-09-06T05:03:28.054Z,101639.34
2023-09-06T05:05:23.564Z,101635.84
2023-09-06T05:07:16.589Z,101639.34
2023-09-06T05:09:12.079Z,101638.69
2023-09-06T05:11:08.081Z,101637.84
2023-09-06T05:13:00.572Z,101636.38
2023-09-06T05:14:57.203Z,101648.91
2023-09-06T05:16:55.243Z,101641.25
2023-09-06T05:18:50.422Z,101648.59
2023-09-06T05:20:46.404Z,101645.44
2023-09-06T05:22:38.910Z,101642.78
2023-09-06T05:24:33.996Z,101644.44
2023-09-06T05:26:30.041Z,101633.75
2023-09-06T05:28:25.211Z,101645.09
2023-09-06T05:30:20.792Z,101638.09
2023-09-06T05:32:20.215Z,101639.09
2023-09-06T05:34:15.307Z,101644.28
2023-09-06T05:36:10.699Z,101645.94
2023-09-06T05:38:07.146Z,101646.94
2023-09-06T05:40:00.052Z,101649.41
2023-09-06T05:41:57.957Z,101652.56
2023-09-06T05:43:53.277Z,101654.25
2023-09-06T05:45:49.138Z,101647.53
2023-09-06T05:47:49.326Z,101653.34
2023-09-06T05:49:48.207Z,101660.44
2023-09-06T05:51:43.700Z,101654.88
2023-09-06T05:53:38.936Z,101661.06
2023-09-06T05:55:34.388Z,101656.19
2023-09-06T05:57:29.599Z,101662.44
2023-09-06T05:59:24.756Z,101666.22
2023-09-06T06:01:19.229Z,101672.22
2023-09-06T06:03:16.977Z,101669.38
2023-09-06T06:05:13.521Z,101668.00
2023-09-06T06:07:09.254Z,101671.16
2023-09-06T06:09:05.265Z,101673.72
2023-09-06T06:11:02.057Z,101672.03
2023-09-06T06:12:57.412Z,101674.13
2023-09-06T06:14:54.021Z,101667.00
2023-09-06T06:16:49.197Z,101670.19
2023-09-06T06:18:48.652Z,101663.03
2023-09-06T06:20:44.619Z,101662.22
2023-09-06T06:22:41.844Z,101678.03
2023-09-06T06:24:35.928Z,101659.06
2023-09-06T06:26:31.041Z,101670.56
2023-09-06T06:28:26.296Z,101667.25
2023-09-06T06:30:22.207Z,101670.09
2023-09-06T06:32:14.773Z,101664.91
2023-09-06T06:34:15.338Z,101678.59
2023-09-06T06:36:10.846Z,101679.97
2023-09-06T06:38:06.026Z,101674.63
2023-09-06T06:40:02.557Z,101674.94
2023-09-06T06:41:57.610Z,101668.00
2023-09-06T06:43:53.624Z,101676.69
2023-09-06T06:45:50.626Z,101672.50
2023-09-06T06:47:45.777Z,101676.84
2023-09-06T06:49:44.708Z,101676.69
2023-09-06T06:51:43.005Z,101677.50
2023-09-06T06:53:36.109Z,101677.50
2023-09-06T06:55:31.660Z,101676.31
2023-09-06T06:57:26.761Z,101679.47
2023-09-06T06:59:21.873Z,101678.41
2023-09-06T07:01:14.805Z,101680.53
2023-09-06T07:03:11.280Z,101675.66
2023-09-06T07:05:09.630Z,101681.66
2023-09-06T07:07:04.991Z,101678.63
2023-09-06T07:09:01.031Z,101686.28
2023-09-06T07:10:53.535Z,101681.91
2023-09-06T07:12:49.697Z,101689.84
2023-09-06T07:14:44.768Z,101689.31
2023-09-06T07:16:41.136Z,101700.00
2023-09-06T07:18:33.642Z,101685.06
2023-09-06T07:20:31.294Z,101691.16
2023-09-06T07:22:26.716Z,101690.09
2023-09-06T07:24:21.776Z,101696.91
2023-09-06T07:26:17.310Z,101692.03
2023-09-06T07:28:09.823Z,101700.00
2023-09-06T07:30:04.916Z,101696.31
2023-09-06T07:32:00.319Z,101701.66
2023-09-06T07:33:55.767Z,101699.09
2023-09-06T07:35:50.938Z,101701.31
2023-09-06T07:37:46.614Z,101692.47
2023-09-06T07:39:41.692Z,101696.59
2023-09-06T07:41:34.557Z,101696.06
2023-09-06T07:43:30.057Z,101697.53
2023-09-06T07:45:25.310Z,101698.63
2023-09-06T07:47:20.727Z,101693.00
2023-09-06T07:49:13.514Z,101702.50
2023-09-06T07:51:13.490Z,101697.91
2023-09-06T07:53:10.014Z,101701.38
2023-09-06T07:55:05.429Z,101698.81
2023-09-06T07:57:00.758Z,101698.69
2023-09-06T07:58:56.488Z,101706.72
2023-09-06T08:01:06.159Z,101705.78
2023-09-06T08:03:07.055Z,101700.94
2023-09-06T08:05:02.802Z,101709.28
2023-09-06T08:07:01.151Z,101709.91
2023-09-06T08:08:54.368Z,101711.00
2023-09-06T08:10:49.987Z,101707.13
2023-09-06T08:12:42.912Z,101707.00
2023-09-06T08:14:40.326Z,101711.44
2023-09-06T08:16:36.149Z,101703.47
2023-09-06T08:18:30.461Z,101706.81
2023-09-06T08:20:26.282Z,101712.00
2023-09-06T08:22:35.585Z,101709.81
2023-09-06T08:24:40.938Z,101706.72
2023-09-06T08:26:38.389Z,101711.38
2023-09-06T08:28:34.405Z,101710.19
2023-09-06T08:30:29.845Z,101710.81
2023-09-06T08:32:23.074Z,101716.53
2023-09-06T08:34:19.078Z,101705.88
2023-09-06T08:36:14.588Z,101711.44
2023-09-06T08:38:14.228Z,101707.16
2023-09-06T08:40:11.777Z,101711.78
2023-09-06T08:42:08.555Z,101708.31
2023-09-06T08:44:07.765Z,101715.22
2023-09-06T08:46:06.074Z,101711.94
2023-09-06T08:48:02.417Z,101717.97
2023-09-06T08:49:56.037Z,101714.25
2023-09-06T08:51:51.996Z,101713.88
2023-09-06T08:53:51.782Z,101715.97
2023-09-06T08:55:48.153Z,101720.56
2023-09-06T08:57:43.136Z,101724.09
2023-09-06T08:59:38.576Z,101721.66
2023-09-06T09:01:34.010Z,101717.31
2023-09-06T09:03:29.970Z,101716.34
2023-09-06T09:05:25.545Z,101726.88
2023-09-06T09:07:19.789Z,101720.09
2023-09-06T09:09:22.498Z,101719.91
2023-09-06T09:11:19.898Z,101717.22
2023-09-06T09:13:13.419Z,101714.56
2023-09-06T09:15:21.264Z,101712.13
2023-09-06T09:17:18.688Z,101710.44
2023-09-06T09:19:14.152Z,101713.13
2023-09-06T09:21:11.736Z,101717.22
2023-09-06T09:23:07.774Z,101713.69
2023-09-06T09:25:15.542Z,101718.09
2023-09-06T09:27:11.678Z,101719.53
2023-09-06T09:29:07.496Z,101725.31
2023-09-06T09:31:00.273Z,101723.66
2023-09-06T09:33:05.788Z,101718.88
2023-09-06T09:34:58.860Z,101728.38
2023-09-06T09:36:54.883Z,101722.31
2023-09-06T09:38:52.611Z,101730.75
2023-09-06T09:40:53.345Z,101730.69
2023-09-06T09:42:56.747Z,101726.97
2023-09-06T09:45:04.558Z,101730.59
2023-09-06T09:46:58.640Z,101731.28
2023-09-06T09:48:54.531Z,101728.41
2023-09-06T09:50:55.575Z,101733.44
2023-09-06T09:52:52.479Z,101731.13
2023-09-06T09:54:52.960Z,101723.13
2023-09-06T09:56:58.082Z,101725.59
2023-09-06T09:58:57.168Z,101719.13
2023-09-06T10:00:53.655Z,101723.06
2023-09-06T10:02:52.545Z,101716.66
2023-09-06T10:04:48.836Z,101721.88
2023-09-06T10:06:44.892Z,101708.00
2023-09-06T10:08:46.126Z,101722.25
2023-09-06T10:10:44.955Z,101723.81
2023-09-06T10:12:45.737Z,101721.78
2023-09-06T10:14:46.107Z,101722.53
2023-09-06T10:16:42.710Z,101724.50
2023-09-06T10:18:41.786Z,101717.13
2023-09-06T10:20:39.782Z,101725.63
2023-09-06T10:22:35.590Z,101724.19
2023-09-06T10:24:37.314Z,101730.09
2023-09-06T10:26:38.396Z,101730.78
2023-09-06T10:28:36.815Z,101727.59
2023-09-06T10:30:46.934Z,101731.22
2023-09-06T10:32:44.195Z,101725.00
2023-09-06T10:34:47.253Z,101724.34
2023-09-06T10:36:53.747Z,101722.16
2023-09-06T10:39:19.547Z,101722.66
2023-09-06T10:41:12.472Z,101719.41
2023-09-06T10:43:09.303Z,101718.47
2023-09-06T10:45:15.338Z,101716.50
2023-09-06T10:47:30.062Z,101718.34
2023-09-06T10:49:30.555Z,101719.00
2023-09-06T10:51:28.830Z,101719.19
2023-09-06T10:53:24.158Z,101714.97
2023-09-06T10:55:20.021Z,101714.41
2023-09-06T10:57:17.197Z,101711.03
2023-09-06T10:59:21.092Z,101709.69
2023-09-06T11:01:22.071Z,101710.03
2023-09-06T11:03:34.956Z,101707.34
2023-09-06T11:05:36.694Z,101711.50
2023-09-06T11:07:49.137Z,101705.38
2023-09-06T11:09:50.393Z,101707.38
2023-09-06T11:11:46.560Z,101703.94
2023-09-06T11:13:44.522Z,101705.22
2023-09-06T11:15:38.010Z,101704.44
2023-09-06T11:17:36.354Z,101699.00
2023-09-06T11:19:30.490Z,101695.38
2023-09-06T11:45:49.958Z,101684.38
2023-09-06T12:04:29.948Z,101664.56
2023-09-06T12:06:31.256Z,101667.88
2023-09-06T12:08:46.623Z,101665.59
2023-09-06T12:10:52.056Z,101669.78
2023-09-06T12:13:08.976Z,101669.91
2023-09-06T12:15:10.200Z,101666.66
2023-09-06T12:17:09.437Z,101664.13
2023-09-06T12:19:05.600Z,101662.00
2023-09-06T12:21:10.489Z,101657.63
2023-09-06T12:23:16.852Z,101659.81
2023-09-06T12:25:13.117Z,101667.38
2023-09-06T12:27:12.604Z,101660.03
2023-09-06T12:29:15.463Z,101669.00
2023-09-06T12:31:17.665Z,101667.72
2023-09-06T12:33:35.684Z,101667.00
2023-09-06T12:35:44.878Z,101666.50
2023-09-06T12:37:52.710Z,101669.03
2023-09-06T12:56:36.251Z,101652.50
2023-09-06T13:03:16.497Z,101646.44
2023-09-06T13:09:14.573Z,101654.50
2023-09-06T13:23:35.501Z,101638.06
2023-09-06T13:26:08.555Z,101639.19
2023-09-06T13:46:17.072Z,101631.09
2023-09-06T13:48:40.454Z,101617.53
2023-09-06T13:54:01.599Z,101620.22
2023-09-06T13:56:14.393Z,101619.97
2023-09-06T13:58:13.193Z,101617.53
2023-09-06T14:00:13.019Z,101621.72
2023-09-06T14:02:18.593Z,101618.34
2023-09-06T14:04:13.737Z,101614.97
2023-09-06T14:06:27.329Z,101614.69
2023-09-06T14:08:34.842Z,101606.13
2023-09-06T14:10:32.389Z,101600.78
2023-09-06T14:12:45.380Z,101608.81
2023-09-06T14:14:41.056Z,101598.84
2023-09-06T14:16:46.538Z,101600.41
2023-09-06T14:18:51.065Z,101604.38
2023-09-06T14:20:50.381Z,101595.88
2023-09-06T14:22:45.987Z,101602.50
2023-09-06T14:24:42.048Z,101597.88
2023-09-06T14:26:38.918Z,101593.38
2023-09-06T14:28:53.381Z,101592.22
2023-09-06T14:31:26.555Z,101591.22
2023-09-06T14:33:35.679Z,101594.25
2023-09-06T14:36:12.869Z,101596.69
2023-09-06T14:38:35.737Z,101596.56
2023-09-06T14:40:46.343Z,101588.53
2023-09-06T14:42:48.207Z,101584.88
2023-09-06T14:44:46.572Z,101580.19
2023-09-06T14:46:45.518Z,101587.66
2023-09-06T14:48:41.698Z,101586.19
2023-09-06T14:50:39.845Z,101591.22
2023-09-06T14:52:35.112Z,101593.56
2023-09-06T14:54:30.688Z,101594.13
2023-09-06T14:56:27.351Z,101592.38
2023-09-06T14:58:24.513Z,101595.00
2023-09-06T15:00:21.361Z,101587.03
2023-09-06T15:02:19.529Z,101585.06
2023-09-06T15:04:15.728Z,101583.09
2023-09-06T15:06:14.906Z,101584.91
2023-09-06T15:08:10.462Z,101586.59
2023-09-06T15:10:12.668Z,101578.97
2023-09-06T15:12:09.459Z,101578.81
2023-09-06T15:14:02.836Z,101582.50
2023-09-06T15:15:58.745Z,101590.66
2023-09-06T15:17:51.558Z,101581.03
2023-09-06T15:19:48.596Z,101584.06
2023-09-06T15:21:46.937Z,101587.03
2023-09-06T15:23:44.132Z,101586.19
2023-09-06T15:25:40.694Z,101580.94
2023-09-06T15:27:34.015Z,101577.97
2023-09-06T15:29:31.228Z,101585.81
2023-09-06T15:31:43.047Z,101585.38
2023-09-06T15:33:39.693Z,101581.09
2023-09-06T15:35:35.294Z,101585.59
2023-09-06T15:37:38.716Z,101578.25
2023-09-06T15:39:43.044Z,101589.31
2023-09-06T15:41:41.188Z,101585.03
2023-09-06T15:43:51.928Z,101580.28
2023-09-06T15:45:55.145Z,101588.16
2023-09-06T15:47:51.312Z,101582.38
2023-09-06T15:49:56.988Z,101587.28
2023-09-06T15:51:59.320Z,101580.22
2023-09-06T15:53:57.363Z,101580.09
2023-09-06T15:55:55.798Z,101580.50
2023-09-06T15:57:52.773Z,101586.13
2023-09-06T15:59:48.321Z,101583.38
2023-09-06T16:01:46.572Z,101577.78
2023-09-06T16:03:45.421Z,101570.59
2023-09-06T16:05:41.018Z,101578.94
2023-09-06T16:07:37.534Z,101583.94
2023-09-06T16:09:41.014Z,101577.59
2023-09-06T16:11:38.380Z,101577.53
2023-09-06T16:13:34.096Z,101574.47
2023-09-06T16:15:28.383Z,101577.63
2023-09-06T16:17:23.887Z,101584.53
2023-09-06T16:19:19.906Z,101580.09
2023-09-06T16:21:13.021Z,101587.63
2023-09-06T16:23:08.246Z,101575.31
2023-09-06T16:25:09.248Z,101582.44
2023-09-06T16:27:05.184Z,101586.50
2023-09-06T16:29:08.311Z,101584.47
2023-09-06T16:31:05.819Z,101580.09
2023-09-06T16:33:01.349Z,101582.66
2023-09-06T16:34:57.058Z,101581.75
2023-09-06T16:36:49.760Z,101580.31
2023-09-06T16:38:46.133Z,101579.63
2023-09-06T16:40:44.358Z,101584.38
2023-09-06T16:42:39.940Z,101580.41
2023-09-06T16:44:33.956Z,101584.28
2023-09-06T16:46:30.332Z,101582.03
2023-09-06T16:48:23.188Z,101581.59
2023-09-06T16:50:21.408Z,101578.13
2023-09-06T16:52:17.445Z,101580.59
2023-09-06T16:54:12.817Z,101583.78
2023-09-06T16:56:09.002Z,101575.13
2023-09-06T16:58:08.132Z,101581.94
2023-09-06T17:00:06.002Z,101587.81
2023-09-06T17:02:01.672Z,101594.22
2023-09-06T17:03:55.014Z,101593.00
2023-09-06T17:05:50.666Z,101590.63
2023-09-06T17:07:47.066Z,101587.66
2023-09-06T17:09:42.715Z,101590.50
2023-09-06T17:11:42.783Z,101588.88
2023-09-06T17:13:37.998Z,101592.94
2023-09-06T17:15:33.922Z,101587.91
2023-09-06T17:17:57.978Z,101593.16
2023-09-06T17:19:56.676Z,101593.13
2023-09-06T17:21:52.108Z,101598.03
2023-09-06T17:24:02.355Z,101597.75
2023-09-06T17:26:08.544Z,101601.50
2023-09-06T17:28:09.123Z,101597.28
2023-09-06T17:30:12.060Z,101598.88
2023-09-06T17:32:08.676Z,101597.16
2023-09-06T17:34:04.500Z,101608.72
2023-09-06T17:35:58.034Z,101609.72
2023-09-06T17:37:56.217Z,101609.53
2023-09-06T17:39:52.575Z,101614.75
2023-09-06T17:41:49.925Z,101608.31
2023-09-06T17:43:48.456Z,101609.56
2023-09-06T17:45:41.914Z,101614.63
2023-09-06T17:47:40.471Z,101611.47
2023-09-06T17:49:36.307Z,101610.47
2023-09-06T17:51:31.878Z,101617.88
2023-09-06T17:53:28.344Z,101620.91
2023-09-06T17:55:26.584Z,101625.28
2023-09-06T17:57:22.870Z,101621.78
2023-09-06T17:59:25.309Z,101619.38
2023-09-06T18:01:23.105Z,101618.03
2023-09-06T18:03:20.116Z,101618.06
2023-09-06T18:05:15.751Z,101626.00
2023-09-06T18:07:12.854Z,101624.41
2023-09-06T18:09:10.361Z,101618.13
2023-09-06T18:11:08.180Z,101620.34
2023-09-06T18:13:04.403Z,101626.63
2023-09-06T18:15:03.732Z,101625.03
2023-09-06T18:16:59.845Z,101627.53
2023-09-06T18:18:55.975Z,101625.66
2023-09-06T18:20:48.759Z,101630.91
2023-09-06T18:22:43.884Z,101627.63
2023-09-06T18:24:41.421Z,101630.09
2023-09-06T18:26:36.672Z,101639.09
2023-09-06T18:28:32.809Z,101627.88
2023-09-06T18:30:32.023Z,101626.00
2023-09-06T18:32:24.574Z,101631.72
2023-09-06T18:34:23.051Z,101636.63
2023-09-06T18:36:18.853Z,101631.16
2023-09-06T18:38:13.513Z,101628.69
2023-09-06T18:40:14.740Z,101628.09
2023-09-06T18:42:10.577Z,101634.09
2023-09-06T18:44:07.500Z,101633.56
2023-09-06T18:46:06.324Z,101641.44
2023-09-06T18:47:59.412Z,101643.16
2023-09-06T18:49:55.638Z,101633.69
2023-09-06T18:52:11.679Z,101639.16
2023-09-06T18:54:09.044Z,101642.94
2023-09-06T18:56:02.795Z,101631.75
2023-09-06T18:58:06.484Z,101639.78
2023-09-06T18:59:59.376Z,101638.22
2023-09-06T19:02:00.628Z,101645.88
2023-09-06T19:04:10.724Z,101646.88
2023-09-06T19:06:21.848Z,101646.63
2023-09-06T19:27:05.058Z,101662.25
2023-09-06T19:29:03.691Z,101664.84
2023-09-06T19:31:10.190Z,101669.09
2023-09-06T19:33:10.309Z,101665.41
2023-09-06T19:35:12.176Z,101664.03
2023-09-06T19:37:07.732Z,101676.81
2023-09-06T19:39:01.192Z,101665.41
2023-09-06T19:40:57.179Z,101677.53
2023-09-06T19:42:56.069Z,101668.13
2023-09-06T19:44:48.654Z,101668.31
2023-09-06T19:46:43.862Z,101671.59
2023-09-06T19:48:54.669Z,101665.59
2023-09-06T19:50:55.087Z,101666.22
2023-09-06T19:52:51.898Z,101666.66
2023-09-06T19:54:45.132Z,101666.09
2023-09-06T19:56:40.360Z,101669.25
2023-09-06T19:58:36.349Z,101657.66
2023-09-06T20:00:31.713Z,101672.03
2023-09-06T20:02:24.743Z,101660.66
2023-09-06T20:04:21.508Z,101659.09
2023-09-06T20:06:16.995Z,101666.16
2023-09-06T20:08:12.407Z,101663.44
2023-09-06T20:10:09.415Z,101661.00
2023-09-06T20:12:04.859Z,101656.56
2023-09-06T20:14:03.419Z,101664.81
2023-09-06T20:15:59.208Z,101666.06
2023-09-06T20:17:56.166Z,101657.38
2023-09-06T20:19:51.664Z,101651.38
2023-09-06T20:21:47.445Z,101651.53
2023-09-06T20:23:42.681Z,101651.75
2023-09-06T20:25:36.222Z,101651.66
2023-09-06T20:27:31.707Z,101655.59
2023-09-06T20:29:29.728Z,101653.13
2023-09-06T20:31:25.474Z,101655.50
2023-09-06T20:33:23.038Z,101657.97
2023-09-06T20:35:20.427Z,101659.03
2023-09-06T20:37:16.185Z,101658.34
2023-09-06T20:39:11.702Z,101658.84
2023-09-06T20:41:09.662Z,101659.16
2023-09-06T20:43:02.682Z,101656.84
2023-09-06T20:45:00.739Z,101665.88
2023-09-06T20:46:56.209Z,101665.31
2023-09-06T20:48:49.329Z,101667.84
2023-09-06T20:50:44.728Z,101663.00
2023-09-06T20:52:39.876Z,101666.22
2023-09-06T20:54:32.860Z,101677.41
2023-09-06T20:56:28.802Z,101670.22
2023-09-06T20:58:24.895Z,101670.47
2023-09-06T21:00:21.783Z,101675.41
2023-09-06T21:02:34.360Z,101678.97
2023-09-06T21:05:31.881Z,101674.59
2023-09-06T21:07:12.597Z,101681.66
2023-09-06T21:10:03.840Z,101686.03
2023-09-06T21:11:57.170Z,101684.38
2023-09-06T21:13:52.791Z,101680.03
2023-09-06T21:15:49.407Z,101680.94
2023-09-06T21:17:44.988Z,101680.84
2023-09-06T21:19:40.710Z,101685.31
2023-09-06T21:21:33.301Z,101683.53
2023-09-06T21:23:28.979Z,101685.66
2023-09-06T21:25:24.190Z,101686.47
2023-09-06T21:27:16.923Z,101695.28
2023-09-06T21:29:25.938Z,101685.28
2023-09-06T21:31:27.237Z,101684.72
2023-09-06T21:33:22.796Z,101694.94
2023-09-06T21:35:18.244Z,101702.88
2023-09-06T21:37:10.704Z,101697.94
2023-09-06T21:39:06.871Z,101700.03
2023-09-06T21:41:02.819Z,101702.59
2023-09-06T21:43:14.583Z,101701.44
2023-09-06T21:45:14.294Z,101700.84
2023-09-06T21:47:12.394Z,101699.41
2023-09-06T21:49:05.097Z,101705.41
2023-09-06T21:51:10.753Z,101709.72
2023-09-06T21:53:07.789Z,101701.59
2023-09-06T21:55:00.324Z,101710.50
2023-09-06T21:56:55.933Z,101709.44
2023-09-06T21:58:51.409Z,101707.66
2023-09-06T22:00:46.646Z,101705.44
2023-09-06T22:02:45.167Z,101709.72
2023-09-06T22:04:40.875Z,101716.19
2023-09-06T22:06:34.309Z,101717.91
2023-09-06T22:08:29.933Z,101716.72
2023-09-06T22:10:25.774Z,101716.31
2023-09-06T22:12:18.410Z,101717.34
2023-09-06T22:14:16.752Z,101714.91
2023-09-06T22:16:12.173Z,101720.28
2023-09-06T22:18:10.521Z,101719.25
2023-09-06T22:20:06.771Z,101714.13
2023-09-06T22:22:02.273Z,101723.53
2023-09-06T22:23:54.845Z,101728.31
2023-09-06T22:26:00.278Z,101727.78
2023-09-06T22:27:58.546Z,101726.66
2023-09-06T22:29:53.901Z,101720.34
2023-09-06T22:31:47.590Z,101721.47
2023-09-06T22:33:45.901Z,101731.06
2023-09-06T22:35:41.035Z,101728.88
2023-09-06T22:37:36.346Z,101721.38
2023-09-06T22:39:31.823Z,101725.31
2023-09-06T22:41:26.963Z,101726.38
2023-09-06T22:43:22.391Z,101721.00
2023-09-06T22:45:15.599Z,101725.59
2023-09-06T22:47:12.277Z,101727.28
2023-09-06T22:49:10.373Z,101734.16
2023-09-06T22:51:06.206Z,101736.66
2023-09-06T22:53:02.679Z,101730.91
2023-09-06T22:54:58.289Z,101735.09
2023-09-06T22:56:54.184Z,101730.34
2023-09-06T22:58:46.796Z,101737.84
2023-09-06T23:00:44.456Z,101736.00
2023-09-06T23:02:40.082Z,101738.94
2023-09-06T23:04:40.104Z,101743.53
2023-09-06T23:06:33.431Z,101734.66
2023-09-06T23:08:29.197Z,101734.91
2023-09-06T23:10:25.356Z,101739.50
2023-09-06T23:12:21.498Z,101731.66
2023-09-06T23:14:18.770Z,101736.25
2023-09-06T23:16:17.719Z,101736.88
2023-09-06T23:18:13.385Z,101735.88
2023-09-06T23:20:14.981Z,101738.00
2023-09-06T23:22:13.633Z,101734.47
2023-09-06T23:24:13.180Z,101730.56
2023-09-06T23:26:09.694Z,101733.25
2023-09-06T23:28:12.746Z,101741.34
2023-09-06T23:30:17.520Z,101740.53
2023-09-06T23:32:16.650Z,101731.19
2023-09-06T23:34:11.388Z,101727.28
2023-09-06T23:36:10.176Z,101725.88
2023-09-06T23:38:08.541Z,101729.81
2023-09-06T23:40:13.057Z,101735.00
2023-09-06T23:42:11.322Z,101733.78
2023-09-06T23:44:09.009Z,101731.50
2023-09-06T23:46:05.611Z,101735.22
2023-09-06T23:48:01.675Z,101729.84
2023-09-06T23:49:54.541Z,101730.06
2023-09-06T23:51:52.465Z,101729.84
2023-09-06T23:53:45.590Z,101739.38
2023-09-06T23:55:40.825Z,101737.09
2023-09-06T23:57:33.454Z,101746.22
2023-09-06T23:59:28.871Z,101746.22
